AirNav   Everest Fuels
 
 955 users online  

2PA7 Egolf Airport
Landisburg, Pennsylvania, USA

GOING TO LANDISBURG?


FAA INFORMATION EFFECTIVE 25 MARCH 2021

Location

FAA Identifier: 2PA7
Lat/Long: 40-20-00.3040N 077-17-58.9440W
40-20.005067N 077-17.982400W
40.3334178,-77.2997067
(estimated)
Elevation: 610 ft. / 186 m (estimated)
Variation: 10W (1985)
From city: 1 mile SE of LANDISBURG, PA
Time zone: UTC -4 (UTC -5 during Standard Time)
Zip code: 17040

Airport Operations

Airport use: Private use. Permission required prior to landing
Activation date: 08/1969
Control tower: no
ARTCC: NEW YORK CENTER
FSS: WILLIAMSPORT FLIGHT SERVICE STATION
Attendance: UNATNDD
Wind indicator: yes
Segmented circle: no

Nearby radio navigation aids

VOR radial/distance  VOR name  Freq  Var
HARr290/10.7HARRISBURG VORTAC112.5010W
SEGr223/33.4SELINSGROVE VOR/DME110.4008W
RAVr259/34.6RAVINE VORTAC114.6011W
THSr058/38.3ST THOMAS VORTAC115.0007W

 
NDB name  Hdg/Dist  Freq  Var  ID
BELLGROVE270/34.732810WBZJ -... --.. .---

Airport Services

Airframe service: NONE
Powerplant service: NONE

Runway Information

Runway NW/SE

Dimensions: 1300 x 100 ft. / 396 x 30 m
Surface: turf
RUNWAY NW  RUNWAY SE
Traffic pattern: leftleft

Airport Ownership and Management from official FAA records

Ownership: Privately-owned
Owner: C. A. EGOLF
PO BOX 1
LANDISBURG, PA 17040
Phone 717-789-4470
Manager: C. A. EGOLF
PO BOX 1
LANDISBURG, PA 17040
Phone 717-789-4470

Airport Operational Statistics

Aircraft based on the field: 1
Single engine airplanes: 1
    

Additional Remarks

FOR CD CTC HARRISBURG APCH AT 800-932-0712.

Instrument Procedures

There are no published instrument procedures at 2PA7.

Some nearby airports with instrument procedures:

N94 - Carlisle Airport (10 nm SE)
P34 - Mifflintown Airport (17 nm N)
KCXY - Capital City Airport (22 nm E)
KRVL - Mifflin County Airport (25 nm NW)
KMDT - Harrisburg International Airport (26 nm E)
 
Loc | Ops | Rwys | IFR | FBO | Links
Com | Nav | Svcs | Stats | Notes
Area around 2PA7 (Egolf Airport)
 
Road maps at: MapQuest Bing Google
 
Aerial photo
No photo
 
Sectional chart

 
Airport distance calculator
Flying to Egolf Airport? Find the distance to fly.

From to 2PA7

Sunrise and sunset
Times for 11-Apr-2021
 Local
(UTC-4)
 Zulu
(UTC)
Morning civil twilight06:1010:10
Sunrise06:3810:38
Sunset19:4323:43
Evening civil twilight20:1000:10

Current date and time
Zulu (UTC)  12-Apr-2021 01:48:41
Local (UTC-4)  11-Apr-2021 21:48:41
 
METAR
KCXY 
22nm E 
120056Z 08010KT 10SM BKN010 OVC017 18/15 A2950 RMK AO2 LTG DSNT SE-W SLP990 T01780150
KRVL 
25nm NW 
120135Z AUTO 20007KT 4SM -RA 14/14 A2956 RMK AO2
KMDT 
26nm E 
120130Z 06013KT 10SM BKN009 BKN015 OVC020 17/14 A2950 RMK AO2 CB DSNT W AND S MOV NE OCNL LTGICCC DSNT W AND S T01720139 $
KTHV 
31nm SE 
120135Z AUTO 04010KT 2SM +TSRA BR FEW017 BKN032 OVC065 16/13 A2952 RMK AO2 LTG DSNT ALQDS RAB0058 P0035 T01560133
KMUI 
34nm E 
120104Z AUTO 07012G17KT 10SM BKN006 OVC011 15/15 A2954 RMK AO2 SLP005
KSEG 
35nm NE 
120140Z AUTO 07007KT 10SM BKN013 15/13 A2952 RMK AO2 LTG DSNT SW AND W T01500133
KUNV 
39nm NW 
120053Z 24005KT 3SM TSRA BR SCT032 BKN041 OVC048 14/13 A2955 RMK OCNL LTGICCCCG TS SE MOV E
KHGR 
43nm SW 
120101Z 31007KT 10SM FEW030 OVC055 14/13 A2953 RMK AO2 LTG DSNT N-E RAE0059 CB DSNT NW-E P0000 T01440128 $
TAF
KMDT 
26nm E 
112129Z 1121/1218 VRB03KT P6SM FEW030 FM120300 01004KT 5SM BR VCSH OVC008 FM120600 36004KT 3SM BR OVC007
NOTAMs
Click for the latest NOTAMs
NOTAMs are issued by the DoD/FAA and will open in a separate window not controlled by AirNav.

 

 
 

Would you like to see your business listed on this page?

 If your business provides an interesting product or service to pilots, flight crews, aircraft, or users of the Egolf Airport, you should consider listing it here.  To start the listing process, click on the button below
 
Add a business
 

Other Pages about Egolf Airport

Update a link
 
Copyright © AirNav, LLC. All rights reserved. Privacy Policy  Contact